sensor_id;sensor_type;location;lat;lon;timestamp;P1;durP1;ratioP1;P2;durP2;ratioP2
47796;SDS011;33558;50.922;14.068;2023-07-13T00:25:18;2.78;;;2.03;;
47796;SDS011;33558;50.922;14.068;2023-07-13T00:28:18;2.92;;;2.05;;
47796;SDS011;33558;50.922;14.068;2023-07-13T00:32:18;2.78;;;2.50;;
47796;SDS011;33558;50.922;14.068;2023-07-13T00:39:01;3.45;;;2.05;;
47796;SDS011;33558;50.922;14.068;2023-07-13T00:49:37;2.97;;;2.30;;
47796;SDS011;33558;50.922;14.068;2023-07-13T06:43:52;4.43;;;3.60;;
47796;SDS011;33558;50.922;14.068;2023-07-13T06:46:20;5.25;;;4.20;;
47796;SDS011;33558;50.922;14.068;2023-07-13T06:52:21;6.90;;;3.60;;
47796;SDS011;33558;50.922;14.068;2023-07-13T06:54:49;3.20;;;2.80;;
47796;SDS011;33558;50.922;14.068;2023-07-13T06:57:31;3.30;;;2.80;;
47796;SDS011;33558;50.922;14.068;2023-07-13T08:01:05;7.05;;;2.85;;
47796;SDS011;33558;50.922;14.068;2023-07-13T08:03:32;6.95;;;3.10;;
47796;SDS011;33558;50.922;14.068;2023-07-13T08:11:27;6.25;;;2.40;;
47796;SDS011;33558;50.922;14.068;2023-07-13T08:22:07;4.47;;;2.40;;
47796;SDS011;33558;50.922;14.068;2023-07-13T08:52:44;7.22;;;2.00;;
47796;SDS011;33558;50.922;14.068;2023-07-13T09:41:31;5.25;;;1.80;;
47796;SDS011;33558;50.922;14.068;2023-07-13T10:15:41;3.75;;;1.83;;
47796;SDS011;33558;50.922;14.068;2023-07-13T10:18:07;6.88;;;1.60;;
47796;SDS011;33558;50.922;14.068;2023-07-13T11:06:58;2.10;;;1.25;;
47796;SDS011;33558;50.922;14.068;2023-07-13T11:09:36;3.47;;;1.42;;
47796;SDS011;33558;50.922;14.068;2023-07-13T11:12:27;4.78;;;1.33;;
47796;SDS011;33558;50.922;14.068;2023-07-13T11:49:41;4.68;;;1.55;;
47796;SDS011;33558;50.922;14.068;2023-07-13T12:14:35;3.92;;;1.20;;
47796;SDS011;33558;50.922;14.068;2023-07-13T12:44:11;2.03;;;1.00;;
47796;SDS011;33558;50.922;14.068;2023-07-13T12:46:50;2.95;;;1.35;;
47796;SDS011;33558;50.922;14.068;2023-07-13T12:49:18;3.28;;;1.30;;
47796;SDS011;33558;50.922;14.068;2023-07-13T12:51:55;2.72;;;1.17;;
47796;SDS011;33558;50.922;14.068;2023-07-13T12:54:28;3.35;;;1.30;;
47796;SDS011;33558;50.922;14.068;2023-07-13T13:04:13;2.67;;;1.30;;
47796;SDS011;33558;50.922;14.068;2023-07-13T13:06:40;7.00;;;1.20;;
47796;SDS011;33558;50.922;14.068;2023-07-13T13:09:11;2.08;;;0.98;;
47796;SDS011;33558;50.922;14.068;2023-07-13T13:22:34;2.53;;;1.30;;
47796;SDS011;33558;50.922;14.068;2023-07-13T13:25:01;3.85;;;1.55;;
47796;SDS011;33558;50.922;14.068;2023-07-13T13:27:28;2.72;;;1.13;;
47796;SDS011;33558;50.922;14.068;2023-07-13T13:33:52;6.65;;;1.60;;
47796;SDS011;33558;50.922;14.068;2023-07-13T13:36:22;1.85;;;1.38;;
47796;SDS011;33558;50.922;14.068;2023-07-13T13:38:51;3.80;;;1.65;;
47796;SDS011;33558;50.922;14.068;2023-07-13T13:41:18;3.38;;;1.20;;
47796;SDS011;33558;50.922;14.068;2023-07-13T13:43:44;3.08;;;1.30;;
47796;SDS011;33558;50.922;14.068;2023-07-13T13:46:14;2.25;;;1.02;;
47796;SDS011;33558;50.922;14.068;2023-07-13T13:48:43;3.17;;;1.30;;
47796;SDS011;33558;50.922;14.068;2023-07-13T13:51:12;5.03;;;1.15;;
47796;SDS011;33558;50.922;14.068;2023-07-13T13:53:42;3.90;;;1.23;;
47796;SDS011;33558;50.922;14.068;2023-07-13T13:56:10;3.65;;;1.40;;
47796;SDS011;33558;50.922;14.068;2023-07-13T13:58:37;3.03;;;1.08;;
47796;SDS011;33558;50.922;14.068;2023-07-13T14:01:05;4.47;;;1.65;;
47796;SDS011;33558;50.922;14.068;2023-07-13T14:03:35;6.65;;;1.42;;
47796;SDS011;33558;50.922;14.068;2023-07-13T14:06:02;3.63;;;1.27;;
47796;SDS011;33558;50.922;14.068;2023-07-13T14:08:29;3.33;;;1.23;;
47796;SDS011;33558;50.922;14.068;2023-07-13T14:10:56;6.80;;;1.20;;
47796;SDS011;33558;50.922;14.068;2023-07-13T14:13:27;3.38;;;1.83;;
47796;SDS011;33558;50.922;14.068;2023-07-13T14:16:04;2.38;;;1.20;;
47796;SDS011;33558;50.922;14.068;2023-07-13T14:18:35;9.70;;;1.25;;
47796;SDS011;33558;50.922;14.068;2023-07-13T14:21:02;3.67;;;1.33;;
47796;SDS011;33558;50.922;14.068;2023-07-13T14:23:32;3.65;;;1.08;;
47796;SDS011;33558;50.922;14.068;2023-07-13T14:25:59;4.22;;;1.02;;
47796;SDS011;33558;50.922;14.068;2023-07-13T14:28:27;3.15;;;1.40;;
47796;SDS011;33558;50.922;14.068;2023-07-13T14:30:55;5.50;;;1.05;;
47796;SDS011;33558;50.922;14.068;2023-07-13T14:33:22;3.03;;;1.08;;
47796;SDS011;33558;50.922;14.068;2023-07-13T14:35:50;3.90;;;1.38;;
47796;SDS011;33558;50.922;14.068;2023-07-13T14:38:18;2.50;;;0.80;;
47796;SDS011;33558;50.922;14.068;2023-07-13T14:40:46;2.78;;;1.10;;
47796;SDS011;33558;50.922;14.068;2023-07-13T14:43:14;5.03;;;1.38;;
47796;SDS011;33558;50.922;14.068;2023-07-13T14:45:44;4.80;;;1.02;;
47796;SDS011;33558;50.922;14.068;2023-07-13T14:48:15;3.90;;;1.08;;
47796;SDS011;33558;50.922;14.068;2023-07-13T14:50:44;3.55;;;1.20;;
47796;SDS011;33558;50.922;14.068;2023-07-13T14:53:11;2.25;;;1.15;;
47796;SDS011;33558;50.922;14.068;2023-07-13T14:55:38;3.33;;;1.13;;
47796;SDS011;33558;50.922;14.068;2023-07-13T14:58:06;3.45;;;1.05;;
47796;SDS011;33558;50.922;14.068;2023-07-13T15:00:34;3.55;;;0.82;;
47796;SDS011;33558;50.922;14.068;2023-07-13T15:03:04;2.80;;;1.10;;
47796;SDS011;33558;50.922;14.068;2023-07-13T15:05:32;4.30;;;1.23;;
47796;SDS011;33558;50.922;14.068;2023-07-13T15:08:16;5.57;;;1.17;;
47796;SDS011;33558;50.922;14.068;2023-07-13T15:10:45;2.80;;;1.13;;
47796;SDS011;33558;50.922;14.068;2023-07-13T15:13:13;2.10;;;1.15;;
47796;SDS011;33558;50.922;14.068;2023-07-13T15:15:42;3.15;;;1.30;;
47796;SDS011;33558;50.922;14.068;2023-07-13T15:18:14;3.58;;;1.35;;
47796;SDS011;33558;50.922;14.068;2023-07-13T15:20:42;2.72;;;1.08;;
47796;SDS011;33558;50.922;14.068;2023-07-13T15:23:11;3.40;;;1.00;;
47796;SDS011;33558;50.922;14.068;2023-07-13T15:25:38;4.90;;;1.30;;
47796;SDS011;33558;50.922;14.068;2023-07-13T15:28:05;4.07;;;1.13;;
47796;SDS011;33558;50.922;14.068;2023-07-13T15:30:34;5.57;;;1.10;;
47796;SDS011;33558;50.922;14.068;2023-07-13T15:40:34;4.60;;;1.20;;
47796;SDS011;33558;50.922;14.068;2023-07-13T15:43:08;1.95;;;1.00;;
47796;SDS011;33558;50.922;14.068;2023-07-13T15:45:38;3.33;;;1.27;;
47796;SDS011;33558;50.922;14.068;2023-07-13T15:48:09;4.00;;;1.10;;
47796;SDS011;33558;50.922;14.068;2023-07-13T15:50:44;3.00;;;1.50;;
47796;SDS011;33558;50.922;14.068;2023-07-13T15:56:26;2.17;;;1.15;;
47796;SDS011;33558;50.922;14.068;2023-07-13T15:58:55;4.53;;;1.35;;
47796;SDS011;33558;50.922;14.068;2023-07-13T16:01:22;2.80;;;1.30;;
47796;SDS011;33558;50.922;14.068;2023-07-13T16:03:49;3.95;;;1.42;;
47796;SDS011;33558;50.922;14.068;2023-07-13T16:06:17;10.30;;;1.42;;
47796;SDS011;33558;50.922;14.068;2023-07-13T16:08:47;6.15;;;1.15;;
47796;SDS011;33558;50.922;14.068;2023-07-13T16:14:04;3.88;;;1.10;;
47796;SDS011;33558;50.922;14.068;2023-07-13T16:16:33;4.07;;;1.35;;
47796;SDS011;33558;50.922;14.068;2023-07-13T16:19:02;3.35;;;1.35;;
47796;SDS011;33558;50.922;14.068;2023-07-13T16:22:31;2.05;;;0.90;;
47796;SDS011;33558;50.922;14.068;2023-07-13T16:25:33;2.28;;;1.00;;
47796;SDS011;33558;50.922;14.068;2023-07-13T16:28:25;1.48;;;0.80;;
47796;SDS011;33558;50.922;14.068;2023-07-13T16:30:56;3.33;;;1.00;;
47796;SDS011;33558;50.922;14.068;2023-07-13T16:34:29;2.85;;;0.80;;
47796;SDS011;33558;50.922;14.068;2023-07-13T16:37:05;2.33;;;0.98;;
47796;SDS011;33558;50.922;14.068;2023-07-13T16:39:39;4.88;;;0.90;;
47796;SDS011;33558;50.922;14.068;2023-07-13T16:42:08;7.93;;;1.23;;
47796;SDS011;33558;50.922;14.068;2023-07-13T16:44:37;2.17;;;0.65;;
47796;SDS011;33558;50.922;14.068;2023-07-13T16:47:05;1.85;;;0.80;;
47796;SDS011;33558;50.922;14.068;2023-07-13T16:49:36;5.70;;;0.82;;
47796;SDS011;33558;50.922;14.068;2023-07-13T16:52:03;2.65;;;0.73;;
47796;SDS011;33558;50.922;14.068;2023-07-13T16:54:32;3.33;;;0.70;;
47796;SDS011;33558;50.922;14.068;2023-07-13T16:57:20;3.13;;;0.88;;
47796;SDS011;33558;50.922;14.068;2023-07-13T17:08:54;3.00;;;0.80;;
47796;SDS011;33558;50.922;14.068;2023-07-13T17:11:52;2.63;;;1.00;;
47796;SDS011;33558;50.922;14.068;2023-07-13T17:22:50;1.33;;;0.82;;
47796;SDS011;33558;50.922;14.068;2023-07-13T17:25:21;1.20;;;0.68;;
47796;SDS011;33558;50.922;14.068;2023-07-13T17:28:07;1.23;;;0.50;;
47796;SDS011;33558;50.922;14.068;2023-07-13T17:41:24;3.05;;;1.00;;
47796;SDS011;33558;50.922;14.068;2023-07-13T18:22:29;3.47;;;1.70;;
47796;SDS011;33558;50.922;14.068;2023-07-13T18:55:56;2.10;;;1.52;;
47796;SDS011;33558;50.922;14.068;2023-07-13T18:58:24;4.50;;;1.40;;
47796;SDS011;33558;50.922;14.068;2023-07-13T19:00:54;2.53;;;1.25;;
47796;SDS011;33558;50.922;14.068;2023-07-13T19:32:37;4.03;;;1.50;;
47796;SDS011;33558;50.922;14.068;2023-07-13T19:35:04;3.83;;;1.70;;
47796;SDS011;33558;50.922;14.068;2023-07-13T19:37:34;3.38;;;1.90;;
47796;SDS011;33558;50.922;14.068;2023-07-13T19:40:05;4.65;;;1.80;;
47796;SDS011;33558;50.922;14.068;2023-07-13T19:42:43;5.00;;;1.73;;
47796;SDS011;33558;50.922;14.068;2023-07-13T19:45:54;3.63;;;1.58;;
47796;SDS011;33558;50.922;14.068;2023-07-13T19:48:24;2.40;;;1.40;;
47796;SDS011;33558;50.922;14.068;2023-07-13T19:50:54;5.78;;;1.85;;
47796;SDS011;33558;50.922;14.068;2023-07-13T19:53:21;3.58;;;1.88;;
47796;SDS011;33558;50.922;14.068;2023-07-13T19:55:51;4.30;;;1.73;;
47796;SDS011;33558;50.922;14.068;2023-07-13T19:58:18;3.38;;;2.00;;
47796;SDS011;33558;50.922;14.068;2023-07-13T20:00:45;2.53;;;1.40;;
47796;SDS011;33558;50.922;14.068;2023-07-13T20:06:00;2.83;;;1.52;;
47796;SDS011;33558;50.922;14.068;2023-07-13T20:08:28;2.00;;;1.52;;
47796;SDS011;33558;50.922;14.068;2023-07-13T20:10:57;2.92;;;1.63;;
47796;SDS011;33558;50.922;14.068;2023-07-13T20:13:25;6.22;;;1.65;;
47796;SDS011;33558;50.922;14.068;2023-07-13T20:15:59;2.08;;;1.30;;
47796;SDS011;33558;50.922;14.068;2023-07-13T20:18:26;2.08;;;1.23;;
47796;SDS011;33558;50.922;14.068;2023-07-13T20:21:14;2.53;;;1.30;;
47796;SDS011;33558;50.922;14.068;2023-07-13T20:23:42;3.97;;;1.50;;
47796;SDS011;33558;50.922;14.068;2023-07-13T20:26:10;1.98;;;1.45;;
47796;SDS011;33558;50.922;14.068;2023-07-13T20:28:37;3.20;;;1.52;;
47796;SDS011;33558;50.922;14.068;2023-07-13T20:31:05;2.70;;;1.50;;
47796;SDS011;33558;50.922;14.068;2023-07-13T20:36:10;3.35;;;1.80;;
47796;SDS011;33558;50.922;14.068;2023-07-13T20:38:43;2.80;;;1.70;;
47796;SDS011;33558;50.922;14.068;2023-07-13T20:41:13;5.70;;;1.77;;
47796;SDS011;33558;50.922;14.068;2023-07-13T20:43:46;3.72;;;1.63;;
47796;SDS011;33558;50.922;14.068;2023-07-13T20:46:14;3.25;;;1.80;;
47796;SDS011;33558;50.922;14.068;2023-07-13T20:49:42;2.47;;;1.60;;
47796;SDS011;33558;50.922;14.068;2023-07-13T20:55:50;3.28;;;1.70;;
47796;SDS011;33558;50.922;14.068;2023-07-13T21:03:27;3.53;;;1.60;;
47796;SDS011;33558;50.922;14.068;2023-07-13T21:06:18;4.30;;;1.70;;
47796;SDS011;33558;50.922;14.068;2023-07-13T21:08:59;2.30;;;1.67;;
47796;SDS011;33558;50.922;14.068;2023-07-13T21:15:18;2.72;;;1.30;;
47796;SDS011;33558;50.922;14.068;2023-07-13T21:17:46;2.70;;;1.50;;
47796;SDS011;33558;50.922;14.068;2023-07-13T21:20:21;3.83;;;1.63;;
47796;SDS011;33558;50.922;14.068;2023-07-13T21:22:49;1.95;;;1.42;;
47796;SDS011;33558;50.922;14.068;2023-07-13T21:25:17;3.00;;;1.52;;
47796;SDS011;33558;50.922;14.068;2023-07-13T21:27:45;4.80;;;1.48;;
47796;SDS011;33558;50.922;14.068;2023-07-13T21:30:15;3.10;;;1.40;;
47796;SDS011;33558;50.922;14.068;2023-07-13T21:32:44;2.30;;;1.50;;
47796;SDS011;33558;50.922;14.068;2023-07-13T21:35:26;2.83;;;1.83;;
47796;SDS011;33558;50.922;14.068;2023-07-13T21:37:55;2.33;;;1.40;;
47796;SDS011;33558;50.922;14.068;2023-07-13T21:40:22;3.70;;;1.40;;
47796;SDS011;33558;50.922;14.068;2023-07-13T21:42:52;2.75;;;1.70;;
47796;SDS011;33558;50.922;14.068;2023-07-13T21:45:21;2.67;;;1.60;;
47796;SDS011;33558;50.922;14.068;2023-07-13T21:47:53;3.05;;;1.30;;
47796;SDS011;33558;50.922;14.068;2023-07-13T21:50:24;4.10;;;1.77;;
47796;SDS011;33558;50.922;14.068;2023-07-13T21:56:45;4.18;;;1.88;;
47796;SDS011;33558;50.922;14.068;2023-07-13T21:59:54;2.28;;;1.40;;
47796;SDS011;33558;50.922;14.068;2023-07-13T22:02:20;4.82;;;1.52;;
47796;SDS011;33558;50.922;14.068;2023-07-13T22:04:48;2.35;;;1.40;;
47796;SDS011;33558;50.922;14.068;2023-07-13T22:07:15;3.30;;;1.83;;
47796;SDS011;33558;50.922;14.068;2023-07-13T22:09:42;3.20;;;1.70;;
47796;SDS011;33558;50.922;14.068;2023-07-13T22:12:11;2.22;;;1.42;;
47796;SDS011;33558;50.922;14.068;2023-07-13T22:15:00;3.15;;;1.73;;
47796;SDS011;33558;50.922;14.068;2023-07-13T22:56:45;4.05;;;1.77;;
47796;SDS011;33558;50.922;14.068;2023-07-13T22:59:12;2.50;;;1.45;;
47796;SDS011;33558;50.922;14.068;2023-07-13T23:01:39;2.55;;;1.50;;
47796;SDS011;33558;50.922;14.068;2023-07-13T23:04:11;4.43;;;1.80;;
47796;SDS011;33558;50.922;14.068;2023-07-13T23:09:36;3.42;;;1.70;;
47796;SDS011;33558;50.922;14.068;2023-07-13T23:12:07;3.30;;;1.55;;
47796;SDS011;33558;50.922;14.068;2023-07-13T23:14:36;5.07;;;1.67;;
47796;SDS011;33558;50.922;14.068;2023-07-13T23:17:03;3.05;;;2.00;;
47796;SDS011;33558;50.922;14.068;2023-07-13T23:19:31;3.15;;;1.98;;
47796;SDS011;33558;50.922;14.068;2023-07-13T23:22:00;3.95;;;1.90;;
47796;SDS011;33558;50.922;14.068;2023-07-13T23:24:30;3.17;;;1.60;;
47796;SDS011;33558;50.922;14.068;2023-07-13T23:26:58;2.17;;;1.58;;
47796;SDS011;33558;50.922;14.068;2023-07-13T23:29:27;2.88;;;1.30;;
47796;SDS011;33558;50.922;14.068;2023-07-13T23:31:54;4.70;;;1.50;;
47796;SDS011;33558;50.922;14.068;2023-07-13T23:34:21;2.22;;;1.35;;
47796;SDS011;33558;50.922;14.068;2023-07-13T23:36:48;3.20;;;1.40;;
47796;SDS011;33558;50.922;14.068;2023-07-13T23:39:16;3.17;;;1.48;;
47796;SDS011;33558;50.922;14.068;2023-07-13T23:41:44;3.15;;;1.50;;
47796;SDS011;33558;50.922;14.068;2023-07-13T23:44:12;3.25;;;1.42;;
47796;SDS011;33558;50.922;14.068;2023-07-13T23:46:42;2.33;;;1.40;;
47796;SDS011;33558;50.922;14.068;2023-07-13T23:49:15;2.63;;;1.50;;
47796;SDS011;33558;50.922;14.068;2023-07-13T23:51:47;3.10;;;1.65;;
47796;SDS011;33558;50.922;14.068;2023-07-13T23:54:15;2.70;;;1.60;;
47796;SDS011;33558;50.922;14.068;2023-07-13T23:56:43;3.75;;;1.58;;
47796;SDS011;33558;50.922;14.068;2023-07-13T23:59:12;2.08;;;1.33;;
